sensor_id;sensor_type;location;lat;lon;timestamp;P1;durP1;ratioP1;P2;durP2;ratioP2
10142;SDS011;5112;54.088;13.446;2023-05-07T00:05:46;8.33;;;3.93;;
10142;SDS011;5112;54.088;13.446;2023-05-07T00:15:50;5.53;;;4.87;;
10142;SDS011;5112;54.088;13.446;2023-05-07T00:25:52;8.57;;;4.23;;
10142;SDS011;5112;54.088;13.446;2023-05-07T00:35:55;4.20;;;3.60;;
10142;SDS011;5112;54.088;13.446;2023-05-07T00:45:56;6.07;;;4.43;;
10142;SDS011;5112;54.088;13.446;2023-05-07T00:55:59;11.00;;;4.90;;
10142;SDS011;5112;54.088;13.446;2023-05-07T01:06:02;5.67;;;3.80;;
10142;SDS011;5112;54.088;13.446;2023-05-07T01:16:06;5.93;;;4.57;;
10142;SDS011;5112;54.088;13.446;2023-05-07T01:26:10;6.73;;;4.23;;
10142;SDS011;5112;54.088;13.446;2023-05-07T01:36:12;8.60;;;4.30;;
10142;SDS011;5112;54.088;13.446;2023-05-07T01:46:17;6.73;;;4.30;;
10142;SDS011;5112;54.088;13.446;2023-05-07T01:56:19;4.60;;;3.60;;
10142;SDS011;5112;54.088;13.446;2023-05-07T02:06:22;6.70;;;3.97;;
10142;SDS011;5112;54.088;13.446;2023-05-07T02:16:24;5.23;;;3.70;;
10142;SDS011;5112;54.088;13.446;2023-05-07T02:26:27;5.63;;;3.60;;
10142;SDS011;5112;54.088;13.446;2023-05-07T02:36:29;4.97;;;3.80;;
10142;SDS011;5112;54.088;13.446;2023-05-07T02:46:32;6.03;;;4.87;;
10142;SDS011;5112;54.088;13.446;2023-05-07T02:56:34;7.03;;;4.00;;
10142;SDS011;5112;54.088;13.446;2023-05-07T03:06:37;8.87;;;4.47;;
10142;SDS011;5112;54.088;13.446;2023-05-07T03:16:39;5.53;;;3.83;;
10142;SDS011;5112;54.088;13.446;2023-05-07T03:26:42;5.03;;;4.10;;
10142;SDS011;5112;54.088;13.446;2023-05-07T03:36:44;5.93;;;4.43;;
10142;SDS011;5112;54.088;13.446;2023-05-07T03:46:47;8.50;;;4.53;;
10142;SDS011;5112;54.088;13.446;2023-05-07T03:56:48;5.83;;;3.90;;
10142;SDS011;5112;54.088;13.446;2023-05-07T04:06:51;6.70;;;4.57;;
10142;SDS011;5112;54.088;13.446;2023-05-07T04:16:53;7.90;;;4.90;;
10142;SDS011;5112;54.088;13.446;2023-05-07T04:26:56;6.17;;;4.90;;
10142;SDS011;5112;54.088;13.446;2023-05-07T04:36:58;7.70;;;5.77;;
10142;SDS011;5112;54.088;13.446;2023-05-07T04:47:01;6.40;;;4.63;;
10142;SDS011;5112;54.088;13.446;2023-05-07T04:57:03;5.20;;;4.70;;
10142;SDS011;5112;54.088;13.446;2023-05-07T05:07:07;8.33;;;5.70;;
10142;SDS011;5112;54.088;13.446;2023-05-07T05:17:09;6.20;;;5.40;;
10142;SDS011;5112;54.088;13.446;2023-05-07T05:27:12;7.97;;;5.17;;
10142;SDS011;5112;54.088;13.446;2023-05-07T05:37:13;6.20;;;5.47;;
10142;SDS011;5112;54.088;13.446;2023-05-07T05:47:16;7.87;;;5.60;;
10142;SDS011;5112;54.088;13.446;2023-05-07T05:57:18;7.03;;;5.60;;
10142;SDS011;5112;54.088;13.446;2023-05-07T06:07:21;6.60;;;5.57;;
10142;SDS011;5112;54.088;13.446;2023-05-07T06:17:23;7.47;;;4.90;;
10142;SDS011;5112;54.088;13.446;2023-05-07T06:27:26;7.63;;;5.13;;
10142;SDS011;5112;54.088;13.446;2023-05-07T06:37:28;5.03;;;4.53;;
10142;SDS011;5112;54.088;13.446;2023-05-07T06:47:31;6.70;;;4.63;;
10142;SDS011;5112;54.088;13.446;2023-05-07T06:57:33;5.73;;;4.10;;
10142;SDS011;5112;54.088;13.446;2023-05-07T07:07:36;4.27;;;3.87;;
10142;SDS011;5112;54.088;13.446;2023-05-07T07:17:37;4.57;;;4.17;;
10142;SDS011;5112;54.088;13.446;2023-05-07T07:27:40;4.97;;;3.90;;
10142;SDS011;5112;54.088;13.446;2023-05-07T07:37:42;4.50;;;3.70;;
10142;SDS011;5112;54.088;13.446;2023-05-07T07:47:45;4.47;;;3.43;;
10142;SDS011;5112;54.088;13.446;2023-05-07T07:57:46;4.20;;;3.87;;
10142;SDS011;5112;54.088;13.446;2023-05-07T08:07:49;5.47;;;4.50;;
10142;SDS011;5112;54.088;13.446;2023-05-07T08:17:53;5.10;;;4.57;;
10142;SDS011;5112;54.088;13.446;2023-05-07T08:27:57;4.97;;;4.33;;
10142;SDS011;5112;54.088;13.446;2023-05-07T08:37:59;4.73;;;4.23;;
10142;SDS011;5112;54.088;13.446;2023-05-07T08:48:03;4.40;;;4.00;;
10142;SDS011;5112;54.088;13.446;2023-05-07T08:58:10;4.70;;;3.77;;
10142;SDS011;5112;54.088;13.446;2023-05-07T09:08:14;5.03;;;4.00;;
10142;SDS011;5112;54.088;13.446;2023-05-07T09:18:16;4.73;;;4.10;;
10142;SDS011;5112;54.088;13.446;2023-05-07T09:28:19;4.30;;;3.57;;
10142;SDS011;5112;54.088;13.446;2023-05-07T09:38:21;4.77;;;3.63;;
10142;SDS011;5112;54.088;13.446;2023-05-07T09:48:24;4.73;;;3.73;;
10142;SDS011;5112;54.088;13.446;2023-05-07T09:58:27;4.77;;;4.00;;
10142;SDS011;5112;54.088;13.446;2023-05-07T10:08:31;8.33;;;3.87;;
10142;SDS011;5112;54.088;13.446;2023-05-07T10:18:33;4.57;;;3.40;;
10142;SDS011;5112;54.088;13.446;2023-05-07T10:28:38;4.17;;;3.87;;
10142;SDS011;5112;54.088;13.446;2023-05-07T10:38:42;4.00;;;3.40;;
10142;SDS011;5112;54.088;13.446;2023-05-07T11:20:01;5.10;;;3.70;;
10142;SDS011;5112;54.088;13.446;2023-05-07T11:30:06;4.63;;;3.30;;
10142;SDS011;5112;54.088;13.446;2023-05-07T11:40:09;4.23;;;3.77;;
10142;SDS011;5112;54.088;13.446;2023-05-07T11:50:15;5.33;;;3.70;;
10142;SDS011;5112;54.088;13.446;2023-05-07T12:00:16;4.77;;;3.90;;
10142;SDS011;5112;54.088;13.446;2023-05-07T12:10:20;4.57;;;4.10;;
10142;SDS011;5112;54.088;13.446;2023-05-07T12:20:21;4.73;;;3.67;;
10142;SDS011;5112;54.088;13.446;2023-05-07T12:30:25;4.10;;;3.70;;
10142;SDS011;5112;54.088;13.446;2023-05-07T12:40:35;4.03;;;3.43;;
10142;SDS011;5112;54.088;13.446;2023-05-07T12:50:39;4.93;;;3.33;;
10142;SDS011;5112;54.088;13.446;2023-05-07T13:00:41;3.83;;;3.20;;
10142;SDS011;5112;54.088;13.446;2023-05-07T13:10:44;3.57;;;3.27;;
10142;SDS011;5112;54.088;13.446;2023-05-07T13:20:46;4.73;;;3.50;;
10142;SDS011;5112;54.088;13.446;2023-05-07T13:30:49;6.47;;;3.47;;
10142;SDS011;5112;54.088;13.446;2023-05-07T13:40:51;3.67;;;3.37;;
10142;SDS011;5112;54.088;13.446;2023-05-07T13:50:54;3.47;;;3.07;;
10142;SDS011;5112;54.088;13.446;2023-05-07T14:00:56;4.10;;;3.70;;
10142;SDS011;5112;54.088;13.446;2023-05-07T14:10:59;4.40;;;3.70;;
10142;SDS011;5112;54.088;13.446;2023-05-07T14:21:01;4.00;;;3.60;;
10142;SDS011;5112;54.088;13.446;2023-05-07T14:31:04;3.87;;;3.10;;
10142;SDS011;5112;54.088;13.446;2023-05-07T14:41:06;4.03;;;3.43;;
10142;SDS011;5112;54.088;13.446;2023-05-07T14:51:09;4.93;;;3.40;;
10142;SDS011;5112;54.088;13.446;2023-05-07T15:01:10;3.33;;;3.03;;
10142;SDS011;5112;54.088;13.446;2023-05-07T15:11:13;4.90;;;3.10;;
10142;SDS011;5112;54.088;13.446;2023-05-07T15:21:16;3.73;;;3.43;;
10142;SDS011;5112;54.088;13.446;2023-05-07T15:31:19;3.83;;;3.37;;
10142;SDS011;5112;54.088;13.446;2023-05-07T15:41:21;3.83;;;2.83;;
10142;SDS011;5112;54.088;13.446;2023-05-07T15:51:24;3.97;;;3.20;;
10142;SDS011;5112;54.088;13.446;2023-05-07T16:01:26;3.77;;;2.97;;
10142;SDS011;5112;54.088;13.446;2023-05-07T16:11:29;3.20;;;2.90;;
10142;SDS011;5112;54.088;13.446;2023-05-07T16:21:32;5.70;;;2.70;;
10142;SDS011;5112;54.088;13.446;2023-05-07T16:31:35;3.57;;;2.70;;
10142;SDS011;5112;54.088;13.446;2023-05-07T16:41:37;3.40;;;2.50;;
10142;SDS011;5112;54.088;13.446;2023-05-07T16:51:40;4.30;;;2.80;;
10142;SDS011;5112;54.088;13.446;2023-05-07T17:01:43;3.63;;;2.60;;
10142;SDS011;5112;54.088;13.446;2023-05-07T17:11:46;4.17;;;2.53;;
10142;SDS011;5112;54.088;13.446;2023-05-07T17:21:48;4.50;;;2.93;;
10142;SDS011;5112;54.088;13.446;2023-05-07T17:31:51;2.73;;;2.33;;
10142;SDS011;5112;54.088;13.446;2023-05-07T17:41:52;3.30;;;2.70;;
10142;SDS011;5112;54.088;13.446;2023-05-07T17:51:55;5.07;;;3.20;;
10142;SDS011;5112;54.088;13.446;2023-05-07T18:01:57;5.57;;;2.87;;
10142;SDS011;5112;54.088;13.446;2023-05-07T18:12:00;4.00;;;2.90;;
10142;SDS011;5112;54.088;13.446;2023-05-07T18:22:02;4.70;;;3.60;;
10142;SDS011;5112;54.088;13.446;2023-05-07T18:32:05;4.60;;;3.40;;
10142;SDS011;5112;54.088;13.446;2023-05-07T18:42:07;7.43;;;3.80;;
10142;SDS011;5112;54.088;13.446;2023-05-07T18:52:10;7.40;;;6.10;;
10142;SDS011;5112;54.088;13.446;2023-05-07T19:02:12;4.73;;;3.60;;
10142;SDS011;5112;54.088;13.446;2023-05-07T19:12:17;5.13;;;3.92;;
10142;SDS011;5112;54.088;13.446;2023-05-07T19:22:18;5.77;;;3.90;;
10142;SDS011;5112;54.088;13.446;2023-05-07T19:32:21;6.38;;;4.50;;
10142;SDS011;5112;54.088;13.446;2023-05-07T19:42:23;3.83;;;2.90;;
10142;SDS011;5112;54.088;13.446;2023-05-07T19:52:26;4.10;;;3.13;;
10142;SDS011;5112;54.088;13.446;2023-05-07T20:02:28;5.20;;;3.40;;
10142;SDS011;5112;54.088;13.446;2023-05-07T20:12:31;4.53;;;3.42;;
10142;SDS011;5112;54.088;13.446;2023-05-07T20:22:32;4.27;;;3.30;;
10142;SDS011;5112;54.088;13.446;2023-05-07T20:32:35;5.63;;;3.37;;
10142;SDS011;5112;54.088;13.446;2023-05-07T20:42:37;5.27;;;3.60;;
10142;SDS011;5112;54.088;13.446;2023-05-07T20:52:41;4.27;;;3.50;;
10142;SDS011;5112;54.088;13.446;2023-05-07T21:02:42;6.87;;;3.90;;
10142;SDS011;5112;54.088;13.446;2023-05-07T21:12:46;5.17;;;3.13;;
10142;SDS011;5112;54.088;13.446;2023-05-07T21:22:48;7.67;;;3.30;;
10142;SDS011;5112;54.088;13.446;2023-05-07T21:32:50;3.87;;;3.27;;
10142;SDS011;5112;54.088;13.446;2023-05-07T21:42:54;5.53;;;3.73;;
10142;SDS011;5112;54.088;13.446;2023-05-07T21:52:57;4.93;;;3.13;;
10142;SDS011;5112;54.088;13.446;2023-05-07T22:02:59;3.43;;;2.70;;
10142;SDS011;5112;54.088;13.446;2023-05-07T22:13:02;7.60;;;3.57;;
10142;SDS011;5112;54.088;13.446;2023-05-07T22:23:04;5.00;;;3.90;;
10142;SDS011;5112;54.088;13.446;2023-05-07T22:33:07;3.77;;;3.47;;
10142;SDS011;5112;54.088;13.446;2023-05-07T22:43:08;5.37;;;3.10;;
10142;SDS011;5112;54.088;13.446;2023-05-07T22:53:11;4.43;;;3.37;;
10142;SDS011;5112;54.088;13.446;2023-05-07T23:03:13;5.47;;;3.07;;
10142;SDS011;5112;54.088;13.446;2023-05-07T23:13:16;3.27;;;2.97;;
10142;SDS011;5112;54.088;13.446;2023-05-07T23:23:18;4.80;;;3.20;;
10142;SDS011;5112;54.088;13.446;2023-05-07T23:33:21;5.07;;;3.30;;
10142;SDS011;5112;54.088;13.446;2023-05-07T23:43:23;3.73;;;3.27;;
10142;SDS011;5112;54.088;13.446;2023-05-07T23:53:26;4.13;;;3.03;;
